Historyczne dane pomiarowe

Dodano dane terminowe – wersja testowa.

Dane z okresu 1951-2019

Wersja bazy: 1.34 [2019-03-16, lista zmian], aktualizacja planowana na 2019-04-15

Dane meteo z obszaru Polski uzyskane na podstawie danych udostępnionych przez Instytut Meteorologii i Gospodarki Wodnej – Państwowy Instytut Badawczy.

 

Wybierz Datę:    

       

TemperaturaWilgotnośćWiatrCiśnienieOpadyŚniegCzas trwania zjawisk
 Stacja t tx tn tng RH VA  wxwx mslp ppp RRR   cm mm wxwxwxwxwxwxwx
1999-08-14 15.1 24.2 5.4 4.8 73.8- 3.0 2.0---- 0.9------------
1999-08-13 16.4 21.6 12.6 11.2 74.8- 5.0 3.3---- 0.0------------
1999-08-12 16.4 23.0 10.8 7.9 71.3- 4.3 3.3---- 0.0------------
1999-08-11 18.9 22.4 15.8 13.1 77.0- 5.0 4.3---- 0.0------------
1999-08-10 21.2 26.3 16.9 14.7 81.3- 4.3 4.3---- 0.0------------
1999-08-09 22.1 29.4 16.0 12.7 78.0- 4.3 2.3---- 0.3------------
1999-08-08 23.2 31.0 16.3 13.2 75.5- 2.7 1.7---- 0.0------------
1999-08-07 21.1 29.7 11.6 9.1 79.0- 3.3 3.0---- 0.1------------
1999-08-06 22.7 29.8 16.2 12.7 75.5- 4.0 1.7---- 0.0------------
1999-08-05 19.4 28.3 10.1 7.0 73.8- 3.3 2.3---- 0.0------------
1999-08-04 19.8 29.2 8.5 6.3 67.3- 2.0 2.0---- 0.0------------
1999-08-03 18.7 28.6 8.1 5.4 71.0- 2.3 1.7---- 0.0------------
1999-08-02 18.8 27.8 9.1 6.3 73.0- 2.7 2.3---- 0.0------------
1999-08-01 19.5 28.8 10.0 6.8 74.5- 2.0 4.7---- 0.0------------
1999-07-31 20.0 28.8 10.1 7.3 74.5- 1.7 1.7---- 0.0------------
1999-07-30 19.4 27.8 9.1 6.7 80.3- 1.7 1.0---- 0.0------------
1999-07-29 18.9 26.8 10.1 6.8 71.0- 2.7 1.0---- 0.0------------
1999-07-28 17.8 26.3 8.1 5.8 73.5- 1.3 1.3---- 0.0------------
1999-07-27 18.3 23.8 13.1 11.5 73.0- 2.3 1.3---- 0.0------------
1999-07-26 19.9 27.8 13.1 10.7 82.0- 3.7 1.7---- 5.7------------
1999-07-25 21.0 27.6 12.9 10.2 74.8- 4.7 1.7---- 0.0------------
1999-07-24 17.1 21.3 13.7 13.2 76.0- 5.0 2.3---- 0.0------------
1999-07-23 15.8 19.4 11.5 8.2 84.8- 4.3 2.3---- 0.6------------
1999-07-22 18.8 23.0 14.8 11.2 67.0- 3.7 2.7---- 0.0------------
1999-07-21 22.7 28.8 17.5 14.7 76.5- 3.0 4.0---- 0.4------------
1999-07-20 22.5 32.4 14.2 10.7 75.5- 2.0 2.3---- 1.7------------
1999-07-19 22.8 31.0 13.3 10.9 64.8- 2.0 2.3---- 0.0------------
1999-07-18 21.4 29.7 11.8 9.2 66.0- 1.7 2.3---- 0.0------------
1999-07-17 19.5 26.3 10.5 7.3 67.5- 0.7 1.7---- 0.0------------
1999-07-16 16.8 23.4 10.1 8.7 78.0- 4.0 2.3---- 0.0------------
1999-07-15 16.6 21.2 12.2 9.5 83.3- 3.7 3.0---- 3.6------------
1999-07-14 20.3 25.3 17.4 14.7 91.5- 6.0 3.3---- 3.0------------
1999-07-13 22.8 28.3 16.3 14.7 82.3- 3.7 1.0---- 0.3------------
1999-07-12 22.6 28.8 16.4 13.5 73.0- 3.3 2.0---- 0.0------------
1999-07-11 20.8 25.8 14.6 12.2 70.3- 4.0 4.0---- 0.0------------
1999-07-10 21.3 26.8 15.2 13.1 69.3- 3.0 3.3---- 0.0------------
1999-07-09 19.7 24.8 15.3 15.2 79.3- 5.0 3.3---- 0.0------------
1999-07-08 16.8 18.8 15.0 14.7 90.5- 7.0 2.0---- 3.6------------
1999-07-07 18.1 22.4 15.8 15.7 93.5- 6.0 1.3---- 0.0------------
1999-07-06 22.7 28.0 18.5 16.2 80.5- 5.3 4.3---- 11.2------------
1999-07-05 24.9 32.4 17.1 16.2 65.0- 3.7 3.3---- 0.0------------
1999-07-04 22.3 30.8 14.2 13.7 74.3- 2.7 1.3---- 1.8------------
1999-07-03 21.4 27.5 13.9 11.7 72.5- 2.7 2.3---- 0.0------------
1999-07-02 19.3 22.8 14.8 13.2 78.8- 5.7 1.7---- 9.5------------
1999-07-01 19.8 25.2 15.4 13.0 86.5- 3.7 4.3---- 0.4------------
1999-06-30 20.3 27.3 13.1 11.7 77.3- 4.0 1.3---- 20.4------------
1999-06-29 19.0 24.3 11.6 8.6 65.8- 2.7 1.7---- 0.0------------
1999-06-28 19.4 27.2 14.2 11.2 82.3- 5.3 2.0---- 0.3------------
1999-06-27 19.1 24.3 13.2 11.2 76.0- 4.0 3.0---- 0.3------------
1999-06-26 14.5 21.0 5.9 4.8 76.0- 3.7 2.0---- 0.0------------
1999-06-25 13.2 19.3 7.8 5.6 81.5- 6.7 1.3---- 2.4------------
1999-06-24 12.9 18.8 6.0 3.6 80.0- 4.7 1.0---- 0.0------------
1999-06-23 13.2 17.8 9.0 8.6 79.5- 3.7 2.0---- 0.0------------
1999-06-22 11.5 14.3 9.6 8.7 94.0- 7.0 2.3---- 6.9------------
1999-06-21 16.1 20.7 13.1 12.7 87.3- 6.3 1.0---- 0.6------------
1999-06-20 17.8 22.8 12.1 9.7 82.3- 5.7 1.7---- 0.0------------
1999-06-19 16.9 21.3 12.9 12.7 90.5- 6.3 1.3---- 0.0------------
1999-06-18 16.0 20.8 12.7 9.9 93.5- 7.0 2.0---- 12.2------------
1999-06-17 17.8 22.6 12.5 9.7 88.8- 4.7 1.0---- 0.0------------
1999-06-16 18.1 22.2 13.7 10.2 76.5- 3.7 1.3---- 0.0------------
289.3 ms

 

Źródłem pochodzenia danych jest Instytut Meteorologii i Gospodarki Wodnej – Państwowy Instytut Badawczy. Dane Instytutu Meteorologii i Gospodarki Wodnej – Państwowego Instytutu Badawczego zostały przetworzone.

Dane źródłowe można odnaleźć na stronie https://dane.imgw.pl